createdAt,value
2022-12-17T00:01:48.579Z,84.70
2022-12-17T00:04:34.398Z,85.20
2022-12-17T00:07:19.981Z,84.60
2022-12-17T00:10:06.080Z,84.10
2022-12-17T00:12:51.929Z,84.70
2022-12-17T00:15:37.799Z,84.60
2022-12-17T00:18:24.742Z,85.40
2022-12-17T00:21:12.297Z,86.10
2022-12-17T00:23:58.526Z,85.70
2022-12-17T00:26:44.427Z,85.20
2022-12-17T00:29:30.309Z,86.00
2022-12-17T00:32:17.877Z,85.70
2022-12-17T00:35:03.593Z,85.00
2022-12-17T00:37:49.814Z,85.00
2022-12-17T00:40:35.790Z,85.80
2022-12-17T00:43:25.931Z,85.90
2022-12-17T00:46:11.896Z,84.60
2022-12-17T00:48:58.594Z,84.50
2022-12-17T00:51:45.898Z,85.50
2022-12-17T00:54:34.345Z,86.60
2022-12-17T00:57:20.524Z,85.90
2022-12-17T01:00:06.595Z,84.60
2022-12-17T01:02:53.237Z,83.80
2022-12-17T01:05:39.863Z,84.30
2022-12-17T01:08:27.315Z,84.10
2022-12-17T01:11:18.372Z,84.60
2022-12-17T01:14:05.364Z,84.30
2022-12-17T01:16:51.695Z,85.10
2022-12-17T01:19:38.434Z,84.80
2022-12-17T01:22:24.837Z,85.00
2022-12-17T01:25:10.899Z,85.20
2022-12-17T01:27:56.864Z,83.70
2022-12-17T01:30:47.079Z,84.20
2022-12-17T01:33:34.123Z,83.90
2022-12-17T01:36:20.755Z,84.30
2022-12-17T01:39:07.323Z,83.30
2022-12-17T01:41:53.790Z,83.30
2022-12-17T01:45:04.949Z,82.70
2022-12-17T01:48:07.082Z,82.90
2022-12-17T01:50:55.956Z,82.90
2022-12-17T01:53:44.336Z,84.60
2022-12-17T01:56:31.952Z,85.30
2022-12-17T01:59:18.659Z,85.30
2022-12-17T02:02:04.906Z,84.20
2022-12-17T02:04:51.937Z,83.70
2022-12-17T02:07:37.856Z,83.60
2022-12-17T02:10:28.609Z,83.00
2022-12-17T02:13:19.574Z,83.40
2022-12-17T02:16:12.709Z,84.40
2022-12-17T02:19:16.898Z,83.40
2022-12-17T02:22:06.046Z,83.70
2022-12-17T02:25:11.710Z,83.90
2022-12-17T02:27:58.208Z,83.10
2022-12-17T02:30:44.235Z,82.80
2022-12-17T02:33:31.252Z,83.00
2022-12-17T02:36:23.657Z,82.10
2022-12-17T02:39:09.982Z,82.10
2022-12-17T02:42:10.368Z,82.40
2022-12-17T02:44:58.758Z,82.60
2022-12-17T02:47:45.444Z,82.50
2022-12-17T02:50:37.354Z,82.40
2022-12-17T02:53:24.332Z,81.60
2022-12-17T02:56:10.473Z,82.00
2022-12-17T02:58:56.423Z,81.60
2022-12-17T03:01:42.461Z,81.20
2022-12-17T03:04:29.071Z,81.40
2022-12-17T03:07:17.585Z,81.40
2022-12-17T03:10:03.989Z,81.70
2022-12-17T03:12:50.273Z,81.50
2022-12-17T03:15:37.051Z,81.20
2022-12-17T03:18:23.369Z,81.20
2022-12-17T03:21:13.408Z,81.50
2022-12-17T03:24:00.781Z,81.50
2022-12-17T03:26:46.557Z,81.40
2022-12-17T03:29:33.810Z,82.00
2022-12-17T03:32:22.990Z,81.10
2022-12-17T03:35:09.568Z,80.70
2022-12-17T03:37:55.610Z,80.40
2022-12-17T03:40:41.237Z,80.30
2022-12-17T03:43:27.446Z,80.00
2022-12-17T03:46:33.978Z,79.90
2022-12-17T03:49:22.453Z,79.50
2022-12-17T03:52:08.860Z,79.20
2022-12-17T03:54:54.703Z,78.10
2022-12-17T03:57:40.587Z,78.90
2022-12-17T04:00:27.242Z,78.70
2022-12-17T04:03:14.299Z,78.60
2022-12-17T04:06:01.081Z,77.80
2022-12-17T04:08:46.748Z,77.20
2022-12-17T04:11:32.791Z,78.00
2022-12-17T04:14:23.538Z,77.90
2022-12-17T04:17:09.606Z,77.80
2022-12-17T04:19:56.188Z,77.80
2022-12-17T04:22:42.673Z,77.80
2022-12-17T04:25:30.292Z,76.90
2022-12-17T04:28:16.159Z,77.70
2022-12-17T04:31:04.454Z,77.30
2022-12-17T04:33:50.559Z,76.90
2022-12-17T04:36:36.526Z,77.50
2022-12-17T04:39:22.570Z,77.20
2022-12-17T04:42:08.704Z,76.90
2022-12-17T04:44:54.915Z,77.20
2022-12-17T04:47:41.372Z,77.00
2022-12-17T04:50:29.829Z,77.20
2022-12-17T04:53:33.639Z,76.90
2022-12-17T04:56:20.073Z,76.60
2022-12-17T04:59:06.127Z,75.60
2022-12-17T05:01:52.687Z,75.60
2022-12-17T05:04:39.675Z,76.10
2022-12-17T05:07:26.018Z,76.10
2022-12-17T05:10:12.629Z,75.60
2022-12-17T05:12:58.709Z,74.70
2022-12-17T05:15:49.799Z,75.20
2022-12-17T05:18:39.878Z,75.60
2022-12-17T05:21:30.552Z,75.70
2022-12-17T05:24:19.061Z,74.00
2022-12-17T05:27:04.982Z,73.90
2022-12-17T05:29:50.980Z,73.50
2022-12-17T05:32:37.448Z,73.40
2022-12-17T05:35:23.774Z,73.90
2022-12-17T05:38:09.730Z,75.10
2022-12-17T05:40:58.308Z,74.80
2022-12-17T05:43:44.018Z,73.40
2022-12-17T05:46:34.009Z,74.50
2022-12-17T05:49:20.647Z,74.00
2022-12-17T05:52:07.824Z,72.70
2022-12-17T05:58:06.102Z,72.40
2022-12-17T06:00:52.494Z,74.10
2022-12-17T06:03:38.834Z,71.80
2022-12-17T06:06:26.613Z,72.60
2022-12-17T06:09:15.476Z,73.00
2022-12-17T06:12:02.789Z,72.70
2022-12-17T06:14:51.938Z,71.90
2022-12-17T06:17:38.142Z,71.30
2022-12-17T06:20:24.294Z,72.80
2022-12-17T06:23:23.668Z,72.50
2022-12-17T06:26:12.776Z,72.00
2022-12-17T06:28:58.988Z,70.70
2022-12-17T06:31:45.737Z,72.80
2022-12-17T06:34:32.001Z,72.10
2022-12-17T06:37:19.197Z,71.50
2022-12-17T06:40:04.876Z,71.20
2022-12-17T06:42:51.192Z,71.50
2022-12-17T06:45:37.393Z,70.70
2022-12-17T06:48:25.122Z,70.90
2022-12-17T06:51:19.074Z,70.90
2022-12-17T06:54:06.616Z,72.10
2022-12-17T06:56:54.135Z,71.60
2022-12-17T06:59:41.460Z,70.80
2022-12-17T07:02:31.902Z,71.30
2022-12-17T07:05:28.322Z,71.50
2022-12-17T07:08:18.402Z,71.90
2022-12-17T07:11:08.108Z,71.50
2022-12-17T07:13:54.138Z,72.30
2022-12-17T07:16:43.128Z,72.40
2022-12-17T07:19:31.180Z,72.20
2022-12-17T07:22:19.548Z,72.30
2022-12-17T07:25:05.516Z,69.70
2022-12-17T07:28:01.999Z,71.90
2022-12-17T07:30:55.549Z,71.70
2022-12-17T07:33:42.639Z,71.60
2022-12-17T07:36:33.068Z,71.60
2022-12-17T07:39:18.976Z,70.50
2022-12-17T07:42:05.239Z,69.50
2022-12-17T07:44:51.344Z,68.10
2022-12-17T07:47:40.047Z,68.30
2022-12-17T07:50:26.708Z,67.20
2022-12-17T07:53:19.199Z,68.70
2022-12-17T07:56:09.655Z,69.50
2022-12-17T07:59:07.274Z,67.30
2022-12-17T08:02:13.612Z,67.10
2022-12-17T08:05:33.792Z,69.90
2022-12-17T08:08:35.752Z,70.40
2022-12-17T08:11:22.441Z,69.00
2022-12-17T08:14:17.612Z,66.30
2022-12-17T08:17:05.033Z,65.20
2022-12-17T08:19:54.112Z,67.90
2022-12-17T08:22:43.169Z,68.60
2022-12-17T08:25:29.855Z,68.30
2022-12-17T08:28:48.465Z,68.00
2022-12-17T08:31:23.308Z,69.90
2022-12-17T08:34:09.244Z,68.50
2022-12-17T08:36:57.159Z,67.60
2022-12-17T08:39:43.627Z,67.00
2022-12-17T08:42:29.422Z,68.10
2022-12-17T08:45:16.210Z,68.80
2022-12-17T08:48:04.285Z,68.90
2022-12-17T08:50:52.341Z,69.80
2022-12-17T08:53:38.417Z,69.00
2022-12-17T08:56:24.632Z,69.20
2022-12-17T08:59:10.345Z,70.60
2022-12-17T09:01:56.048Z,70.00
2022-12-17T09:04:42.253Z,70.00
2022-12-17T09:07:28.969Z,70.20
2022-12-17T09:10:14.928Z,69.30
2022-12-17T09:13:04.938Z,70.00
2022-12-17T09:15:52.244Z,68.50
2022-12-17T09:18:41.381Z,69.10
2022-12-17T09:21:27.118Z,70.20
2022-12-17T09:24:12.737Z,69.50
2022-12-17T09:26:59.372Z,69.50
2022-12-17T09:29:45.031Z,68.10
2022-12-17T09:32:30.940Z,68.70
2022-12-17T09:35:31.496Z,68.90
2022-12-17T09:38:17.465Z,67.90
2022-12-17T09:41:05.291Z,68.00
2022-12-17T09:43:58.711Z,68.30
2022-12-17T09:47:05.720Z,68.40
2022-12-17T09:49:52.541Z,69.90
2022-12-17T09:52:41.080Z,70.50
2022-12-17T09:55:42.412Z,70.10
2022-12-17T09:58:44.525Z,70.50
2022-12-17T10:01:50.727Z,69.50
2022-12-17T10:04:42.284Z,68.30
2022-12-17T10:07:33.057Z,68.60
2022-12-17T10:10:21.512Z,68.50
2022-12-17T10:13:07.234Z,68.90
2022-12-17T10:15:53.031Z,69.60
2022-12-17T10:18:39.731Z,69.70
2022-12-17T10:21:29.371Z,69.70
2022-12-17T10:24:28.497Z,69.20
2022-12-17T10:27:15.057Z,69.30
2022-12-17T10:30:01.346Z,69.20
2022-12-17T10:32:48.554Z,69.60
2022-12-17T10:35:42.864Z,70.60
2022-12-17T10:38:40.076Z,70.90
2022-12-17T10:41:42.679Z,70.30
2022-12-17T10:44:41.954Z,70.60
2022-12-17T10:47:32.693Z,70.10
2022-12-17T10:50:20.195Z,69.80
2022-12-17T10:53:07.110Z,71.00
2022-12-17T10:55:53.993Z,70.40
2022-12-17T10:58:44.407Z,70.10
2022-12-17T11:01:31.849Z,70.10
2022-12-17T11:04:18.611Z,69.80
2022-12-17T11:07:06.221Z,69.90
2022-12-17T11:09:52.821Z,69.60
2022-12-17T11:12:38.869Z,70.30
2022-12-17T11:15:35.224Z,70.40
2022-12-17T11:18:21.481Z,70.00
2022-12-17T11:21:13.877Z,70.90
2022-12-17T11:24:01.974Z,70.80
2022-12-17T11:26:51.088Z,70.30
2022-12-17T11:29:37.689Z,70.30
2022-12-17T11:32:35.224Z,70.30
2022-12-17T11:35:32.420Z,70.20
2022-12-17T11:38:42.122Z,70.10
2022-12-17T11:41:45.389Z,69.90
2022-12-17T11:44:47.219Z,69.70
2022-12-17T11:47:46.595Z,69.30
2022-12-17T11:50:56.347Z,69.20
2022-12-17T11:53:53.986Z,69.50
2022-12-17T11:56:43.480Z,70.30
2022-12-17T11:59:33.037Z,69.30
2022-12-17T12:02:37.939Z,70.40
2022-12-17T12:05:38.537Z,69.10
2022-12-17T12:08:31.876Z,69.40
2022-12-17T12:11:38.093Z,70.40
2022-12-17T12:14:26.512Z,69.90
2022-12-17T12:17:39.491Z,70.00
2022-12-17T12:20:28.078Z,69.00
2022-12-17T12:23:14.030Z,69.50
2022-12-17T12:26:17.811Z,69.30
2022-12-17T12:29:21.403Z,68.20
2022-12-17T12:32:13.504Z,68.40
2022-12-17T12:35:01.384Z,68.80
2022-12-17T12:37:48.556Z,69.10
2022-12-17T12:40:44.294Z,69.50
2022-12-17T12:43:32.813Z,68.40
2022-12-17T12:46:36.694Z,69.50
2022-12-17T12:49:22.646Z,69.10
2022-12-17T12:52:10.137Z,69.10
2022-12-17T12:55:05.997Z,67.80
2022-12-17T12:58:00.419Z,68.40
2022-12-17T13:00:55.296Z,67.40
2022-12-17T13:03:56.135Z,68.10
2022-12-17T13:06:42.020Z,68.50
2022-12-17T13:09:16.689Z,68.20
2022-12-17T13:11:54.215Z,67.40
2022-12-17T13:14:37.484Z,68.50
2022-12-17T13:17:21.698Z,69.20
2022-12-17T13:19:58.733Z,68.00
2022-12-17T13:22:31.375Z,68.00
2022-12-17T13:25:19.467Z,69.30
2022-12-17T13:27:47.221Z,69.10
2022-12-17T13:30:18.148Z,70.20
2022-12-17T13:32:46.008Z,70.20
2022-12-17T13:35:13.505Z,70.30
2022-12-17T13:37:49.840Z,70.70
2022-12-17T13:40:35.840Z,71.00
2022-12-17T13:43:04.562Z,71.30
2022-12-17T13:45:33.072Z,71.60
2022-12-17T13:48:01.488Z,71.70
2022-12-17T13:50:35.215Z,72.00
2022-12-17T13:53:13.343Z,72.10
2022-12-17T13:55:41.028Z,72.40
2022-12-17T13:58:20.709Z,72.50
2022-12-17T14:00:48.301Z,72.60
2022-12-17T14:03:18.850Z,72.60
2022-12-17T14:05:46.509Z,72.60
2022-12-17T14:08:17.231Z,72.70
2022-12-17T14:10:53.030Z,72.70
2022-12-17T14:13:21.452Z,72.80
2022-12-17T14:15:50.380Z,72.80
2022-12-17T14:18:19.557Z,73.10
2022-12-17T14:20:48.068Z,73.00
2022-12-17T14:23:29.219Z,73.20
2022-12-17T14:25:57.081Z,73.30
2022-12-17T14:28:30.707Z,73.40
2022-12-17T14:34:02.358Z,73.50
2022-12-17T14:36:30.750Z,73.60
2022-12-17T14:39:00.639Z,73.60
2022-12-17T14:41:47.165Z,73.60
2022-12-17T14:44:21.568Z,73.70
2022-12-17T14:46:49.574Z,73.90
2022-12-17T14:49:22.227Z,73.80
2022-12-17T14:51:51.247Z,73.80
2022-12-17T14:54:18.787Z,73.80
2022-12-17T14:56:47.697Z,73.70
2022-12-17T14:59:43.630Z,74.00
2022-12-17T15:02:26.851Z,73.90
2022-12-17T15:04:58.200Z,74.00
2022-12-17T15:07:26.835Z,74.10
2022-12-17T15:09:56.066Z,74.20
2022-12-17T15:12:25.985Z,74.40
2022-12-17T15:14:53.548Z,74.40
2022-12-17T15:17:21.077Z,74.40
2022-12-17T15:19:55.568Z,74.20
2022-12-17T15:22:23.770Z,74.30
2022-12-17T15:24:52.324Z,74.10
2022-12-17T15:27:19.966Z,74.40
2022-12-17T15:29:47.542Z,74.40
2022-12-17T15:32:21.324Z,74.50
2022-12-17T15:34:49.177Z,74.60
2022-12-17T15:37:21.038Z,74.70
2022-12-17T15:39:51.680Z,74.80
2022-12-17T15:42:37.511Z,75.00
2022-12-17T15:45:05.365Z,75.00
2022-12-17T15:47:32.864Z,75.00
2022-12-17T15:50:00.452Z,75.00
2022-12-17T15:52:28.092Z,74.90
2022-12-17T15:54:55.606Z,75.10
2022-12-17T15:57:23.948Z,75.10
2022-12-17T15:59:52.978Z,75.10
2022-12-17T16:02:20.871Z,75.10
2022-12-17T16:04:48.507Z,75.20
2022-12-17T16:07:16.754Z,75.10
2022-12-17T16:09:44.311Z,75.30
2022-12-17T16:12:11.850Z,75.20
2022-12-17T16:14:39.420Z,75.30
2022-12-17T16:17:06.965Z,75.40
2022-12-17T16:19:34.532Z,75.40
2022-12-17T16:22:02.135Z,75.70
2022-12-17T16:24:29.692Z,75.70
2022-12-17T16:27:00.897Z,75.60
2022-12-17T16:29:32.042Z,75.70
2022-12-17T16:32:00.327Z,75.60
2022-12-17T16:34:27.996Z,75.60
2022-12-17T16:36:55.535Z,75.50
2022-12-17T16:39:23.176Z,75.60
2022-12-17T16:41:50.742Z,75.60
2022-12-17T16:44:18.630Z,75.70
2022-12-17T16:46:48.869Z,76.00
2022-12-17T16:49:18.353Z,76.10
2022-12-17T16:51:47.087Z,76.10
2022-12-17T16:54:16.363Z,75.90
2022-12-17T16:56:44.690Z,75.90
2022-12-17T16:59:12.648Z,75.70
2022-12-17T17:01:41.026Z,75.90
2022-12-17T17:04:09.375Z,75.80
2022-12-17T17:06:40.713Z,75.70
2022-12-17T17:09:08.414Z,75.70
2022-12-17T17:11:36.068Z,75.60
2022-12-17T17:14:04.573Z,75.30
2022-12-17T17:16:34.385Z,73.80
2022-12-17T17:19:02.919Z,74.40
2022-12-17T17:21:31.696Z,74.10
2022-12-17T17:24:03.459Z,73.50
2022-12-17T17:26:32.156Z,73.70
2022-12-17T17:28:59.943Z,73.90
2022-12-17T17:31:53.463Z,73.10
2022-12-17T17:34:15.731Z,71.80
2022-12-17T17:36:43.663Z,72.30
2022-12-17T17:39:11.301Z,72.10
2022-12-17T17:41:38.833Z,72.60
2022-12-17T17:44:08.159Z,72.70
2022-12-17T17:46:36.754Z,73.40
2022-12-17T17:49:05.697Z,74.10
2022-12-17T17:52:07.906Z,74.00
2022-12-17T17:54:22.521Z,74.00
2022-12-17T17:56:50.321Z,74.00
2022-12-17T17:59:23.428Z,73.90
2022-12-17T18:01:53.837Z,74.00
2022-12-17T18:04:22.125Z,73.80
2022-12-17T18:07:16.486Z,74.10
2022-12-17T18:09:37.113Z,73.90
2022-12-17T18:12:24.499Z,73.90
2022-12-17T18:15:13.186Z,73.40
2022-12-17T18:17:40.432Z,73.90
2022-12-17T18:20:09.969Z,73.40
2022-12-17T18:22:38.032Z,73.80
2022-12-17T18:25:05.787Z,73.10
2022-12-17T18:27:33.725Z,73.20
2022-12-17T18:30:01.253Z,72.20
2022-12-17T18:32:29.050Z,71.10
2022-12-17T18:34:56.653Z,72.70
2022-12-17T18:37:24.158Z,70.80
2022-12-17T18:39:51.741Z,72.90
2022-12-17T18:42:37.468Z,72.60
2022-12-17T18:45:05.275Z,72.80
2022-12-17T18:47:33.576Z,71.80
2022-12-17T18:50:01.079Z,72.90
2022-12-17T18:52:28.770Z,72.80
2022-12-17T18:54:56.232Z,71.30
2022-12-17T18:57:23.693Z,72.30
2022-12-17T18:59:54.824Z,71.40
2022-12-17T19:02:22.366Z,72.20
2022-12-17T19:04:49.947Z,71.00
2022-12-17T19:07:17.465Z,70.70
2022-12-17T19:09:44.967Z,71.90
2022-12-17T19:12:13.258Z,71.90
2022-12-17T19:14:40.794Z,72.20
2022-12-17T19:17:08.306Z,72.40
2022-12-17T19:19:35.915Z,72.70
2022-12-17T19:22:03.752Z,72.10
2022-12-17T19:24:31.445Z,72.20
2022-12-17T19:26:58.964Z,72.40
2022-12-17T19:29:26.632Z,72.60
2022-12-17T19:31:55.065Z,72.60
2022-12-17T19:34:22.679Z,72.60
2022-12-17T19:36:50.172Z,72.60
2022-12-17T19:39:20.236Z,72.40
2022-12-17T19:41:51.249Z,72.30
2022-12-17T19:44:21.509Z,72.60
2022-12-17T19:46:49.324Z,72.00
2022-12-17T19:49:17.290Z,71.70
2022-12-17T19:51:45.150Z,72.20
2022-12-17T19:54:15.229Z,71.40
2022-12-17T19:56:43.706Z,72.10
2022-12-17T19:59:11.928Z,71.90
2022-12-17T20:01:44.426Z,72.40
2022-12-17T20:04:12.475Z,71.30
2022-12-17T20:06:40.013Z,71.40
2022-12-17T20:09:07.619Z,71.60
2022-12-17T20:11:35.496Z,71.60
2022-12-17T20:14:09.922Z,72.00
2022-12-17T20:16:39.337Z,72.30
2022-12-17T20:19:08.530Z,71.70
2022-12-17T20:21:36.014Z,71.70
2022-12-17T20:24:04.246Z,71.70
2022-12-17T20:26:31.959Z,71.90
2022-12-17T20:28:59.834Z,72.30
2022-12-17T20:31:27.877Z,72.00
2022-12-17T20:33:55.417Z,71.90
2022-12-17T20:36:23.303Z,72.10
2022-12-17T20:38:50.874Z,71.90
2022-12-17T20:41:20.078Z,72.10
2022-12-17T20:43:48.212Z,71.70
2022-12-17T20:46:16.182Z,72.10
2022-12-17T20:48:45.077Z,72.40
2022-12-17T20:51:14.192Z,73.30
2022-12-17T20:53:41.986Z,72.50
2022-12-17T20:56:11.116Z,72.10
2022-12-17T20:58:39.443Z,72.20
2022-12-17T21:01:11.965Z,72.30
2022-12-17T21:03:40.076Z,72.60
2022-12-17T21:06:08.635Z,72.30
2022-12-17T21:08:36.583Z,72.10
2022-12-17T21:11:04.948Z,72.70
2022-12-17T21:13:32.639Z,72.60
2022-12-17T21:16:01.564Z,72.50
2022-12-17T21:18:29.664Z,72.10
2022-12-17T21:21:14.494Z,72.20
2022-12-17T21:23:42.100Z,72.20
2022-12-17T21:26:14.048Z,72.80
2022-12-17T21:28:42.874Z,72.50
2022-12-17T21:31:22.059Z,72.60
2022-12-17T21:33:50.155Z,72.40
2022-12-17T21:36:19.110Z,72.10
2022-12-17T21:38:46.799Z,72.80
2022-12-17T21:43:42.782Z,71.50
2022-12-17T21:46:11.252Z,72.20
2022-12-17T21:48:41.837Z,71.60
2022-12-17T21:51:10.881Z,71.60
2022-12-17T21:53:43.765Z,72.10
2022-12-17T21:56:16.299Z,72.50
2022-12-17T21:58:44.704Z,72.40
2022-12-17T22:01:18.584Z,72.40
2022-12-17T22:03:50.786Z,72.40
2022-12-17T22:06:24.663Z,72.30
2022-12-17T22:09:03.322Z,71.60
2022-12-17T22:11:32.649Z,71.20
2022-12-17T22:14:07.359Z,72.20
2022-12-17T22:16:35.948Z,71.40
2022-12-17T22:19:07.698Z,71.90
2022-12-17T22:21:36.227Z,72.60
2022-12-17T22:24:03.917Z,72.30
2022-12-17T22:26:32.330Z,72.10
2022-12-17T22:29:00.368Z,72.00
2022-12-17T22:31:46.185Z,71.60
2022-12-17T22:34:46.978Z,71.30
2022-12-17T22:40:18.284Z,71.70
2022-12-17T22:44:33.535Z,71.70
2022-12-17T22:44:42.341Z,71.30
2022-12-17T22:45:44.146Z,71.80
2022-12-17T22:48:13.025Z,72.00
2022-12-17T22:50:51.244Z,71.90
2022-12-17T22:53:28.606Z,72.20
2022-12-17T22:56:12.447Z,72.40
2022-12-17T22:58:50.479Z,71.70
2022-12-17T23:01:22.775Z,71.50
2022-12-17T23:03:54.378Z,71.40
2022-12-17T23:06:22.055Z,70.90
2022-12-17T23:08:49.588Z,71.70
2022-12-17T23:11:23.831Z,71.40
2022-12-17T23:13:51.660Z,71.10
2022-12-17T23:16:19.976Z,71.50
2022-12-17T23:18:48.336Z,70.70
2022-12-17T23:21:20.542Z,70.80
2022-12-17T23:23:48.133Z,71.00
2022-12-17T23:26:20.457Z,71.50
2022-12-17T23:28:48.634Z,71.90
2022-12-17T23:31:17.933Z,71.40
2022-12-17T23:33:46.951Z,71.00
2022-12-17T23:36:15.747Z,71.40
2022-12-17T23:38:43.809Z,71.50
2022-12-17T23:41:15.853Z,71.40
2022-12-17T23:43:43.382Z,70.70
2022-12-17T23:46:11.307Z,71.50
2022-12-17T23:48:45.127Z,70.60
2022-12-17T23:51:14.545Z,70.50
2022-12-17T23:53:42.752Z,71.30
2022-12-17T23:56:15.110Z,71.30
2022-12-17T23:58:43.349Z,71.40
